sensor_id;sensor_type;location;lat;lon;timestamp;P1;durP1;ratioP1;P2;durP2;ratioP2
74371;SDS011;62885;51.374;6.170;2023-07-29T00:00:19;3.25;;;2.03;;
74371;SDS011;62885;51.374;6.170;2023-07-29T00:02:47;3.35;;;1.88;;
74371;SDS011;62885;51.374;6.170;2023-07-29T00:05:12;3.35;;;1.98;;
74371;SDS011;62885;51.374;6.170;2023-07-29T00:07:38;3.33;;;1.80;;
74371;SDS011;62885;51.374;6.170;2023-07-29T00:10:03;3.08;;;1.90;;
74371;SDS011;62885;51.374;6.170;2023-07-29T00:12:29;3.20;;;1.90;;
74371;SDS011;62885;51.374;6.170;2023-07-29T00:14:54;3.10;;;1.70;;
74371;SDS011;62885;51.374;6.170;2023-07-29T00:17:20;5.60;;;2.20;;
74371;SDS011;62885;51.374;6.170;2023-07-29T00:19:46;4.65;;;2.15;;
74371;SDS011;62885;51.374;6.170;2023-07-29T00:22:12;3.30;;;1.90;;
74371;SDS011;62885;51.374;6.170;2023-07-29T00:24:37;5.38;;;2.05;;
74371;SDS011;62885;51.374;6.170;2023-07-29T00:27:02;5.60;;;2.13;;
74371;SDS011;62885;51.374;6.170;2023-07-29T00:29:28;7.43;;;2.80;;
74371;SDS011;62885;51.374;6.170;2023-07-29T00:31:53;4.25;;;1.88;;
74371;SDS011;62885;51.374;6.170;2023-07-29T00:34:19;5.32;;;2.30;;
74371;SDS011;62885;51.374;6.170;2023-07-29T00:36:45;4.05;;;2.03;;
74371;SDS011;62885;51.374;6.170;2023-07-29T00:39:10;3.45;;;1.90;;
74371;SDS011;62885;51.374;6.170;2023-07-29T00:41:36;4.00;;;2.25;;
74371;SDS011;62885;51.374;6.170;2023-07-29T00:44:02;3.55;;;2.15;;
74371;SDS011;62885;51.374;6.170;2023-07-29T00:46:28;3.47;;;2.10;;
74371;SDS011;62885;51.374;6.170;2023-07-29T00:48:54;4.18;;;2.50;;
74371;SDS011;62885;51.374;6.170;2023-07-29T00:51:20;4.45;;;2.17;;
74371;SDS011;62885;51.374;6.170;2023-07-29T00:53:45;3.92;;;2.30;;
74371;SDS011;62885;51.374;6.170;2023-07-29T00:56:11;3.30;;;2.00;;
74371;SDS011;62885;51.374;6.170;2023-07-29T00:58:37;4.25;;;2.30;;
74371;SDS011;62885;51.374;6.170;2023-07-29T01:01:02;6.43;;;2.40;;
74371;SDS011;62885;51.374;6.170;2023-07-29T01:03:28;4.93;;;2.25;;
74371;SDS011;62885;51.374;6.170;2023-07-29T01:05:58;3.63;;;2.38;;
74371;SDS011;62885;51.374;6.170;2023-07-29T01:16:21;6.32;;;2.45;;
74371;SDS011;62885;51.374;6.170;2023-07-29T01:18:51;4.68;;;2.55;;
74371;SDS011;62885;51.374;6.170;2023-07-29T01:21:20;4.50;;;2.10;;
74371;SDS011;62885;51.374;6.170;2023-07-29T01:23:46;3.85;;;2.25;;
74371;SDS011;62885;51.374;6.170;2023-07-29T01:26:12;2.78;;;1.80;;
74371;SDS011;62885;51.374;6.170;2023-07-29T01:28:38;5.68;;;2.17;;
74371;SDS011;62885;51.374;6.170;2023-07-29T01:31:07;7.28;;;2.17;;
74371;SDS011;62885;51.374;6.170;2023-07-29T01:34:02;5.63;;;2.63;;
74371;SDS011;62885;51.374;6.170;2023-07-29T01:36:42;3.33;;;2.00;;
74371;SDS011;62885;51.374;6.170;2023-07-29T01:39:10;5.82;;;2.40;;
74371;SDS011;62885;51.374;6.170;2023-07-29T01:41:37;4.25;;;2.40;;
74371;SDS011;62885;51.374;6.170;2023-07-29T01:44:02;3.60;;;2.35;;
74371;SDS011;62885;51.374;6.170;2023-07-29T01:46:28;3.88;;;2.20;;
74371;SDS011;62885;51.374;6.170;2023-07-29T01:48:54;4.85;;;3.08;;
74371;SDS011;62885;51.374;6.170;2023-07-29T01:51:19;4.53;;;2.50;;
74371;SDS011;62885;51.374;6.170;2023-07-29T01:53:45;3.83;;;2.13;;
74371;SDS011;62885;51.374;6.170;2023-07-29T01:56:11;5.43;;;2.50;;
74371;SDS011;62885;51.374;6.170;2023-07-29T01:58:36;5.03;;;2.72;;
74371;SDS011;62885;51.374;6.170;2023-07-29T02:01:02;4.93;;;2.75;;
74371;SDS011;62885;51.374;6.170;2023-07-29T02:03:27;4.55;;;2.63;;
74371;SDS011;62885;51.374;6.170;2023-07-29T02:05:53;5.65;;;2.53;;
74371;SDS011;62885;51.374;6.170;2023-07-29T02:08:18;4.75;;;2.63;;
74371;SDS011;62885;51.374;6.170;2023-07-29T02:10:43;5.63;;;2.80;;
74371;SDS011;62885;51.374;6.170;2023-07-29T02:13:10;6.32;;;2.85;;
74371;SDS011;62885;51.374;6.170;2023-07-29T02:15:35;6.75;;;2.80;;
74371;SDS011;62885;51.374;6.170;2023-07-29T02:18:01;6.30;;;3.30;;
74371;SDS011;62885;51.374;6.170;2023-07-29T02:20:27;7.78;;;3.10;;
74371;SDS011;62885;51.374;6.170;2023-07-29T02:22:52;6.22;;;3.33;;
74371;SDS011;62885;51.374;6.170;2023-07-29T02:25:17;5.68;;;2.80;;
74371;SDS011;62885;51.374;6.170;2023-07-29T02:27:43;5.25;;;2.83;;
74371;SDS011;62885;51.374;6.170;2023-07-29T02:30:08;5.25;;;2.97;;
74371;SDS011;62885;51.374;6.170;2023-07-29T02:32:34;7.75;;;2.90;;
74371;SDS011;62885;51.374;6.170;2023-07-29T02:35:00;7.88;;;3.03;;
74371;SDS011;62885;51.374;6.170;2023-07-29T02:37:25;6.70;;;3.08;;
74371;SDS011;62885;51.374;6.170;2023-07-29T02:39:51;6.75;;;3.05;;
74371;SDS011;62885;51.374;6.170;2023-07-29T02:42:16;5.40;;;3.22;;
74371;SDS011;62885;51.374;6.170;2023-07-29T02:44:41;7.63;;;3.30;;
74371;SDS011;62885;51.374;6.170;2023-07-29T02:47:07;5.20;;;3.17;;
74371;SDS011;62885;51.374;6.170;2023-07-29T02:49:32;6.75;;;3.00;;
74371;SDS011;62885;51.374;6.170;2023-07-29T02:51:57;8.63;;;3.10;;
74371;SDS011;62885;51.374;6.170;2023-07-29T02:54:23;6.13;;;3.08;;
74371;SDS011;62885;51.374;6.170;2023-07-29T02:56:49;5.75;;;3.00;;
74371;SDS011;62885;51.374;6.170;2023-07-29T02:59:15;6.15;;;3.42;;
74371;SDS011;62885;51.374;6.170;2023-07-29T03:01:40;6.53;;;2.90;;
74371;SDS011;62885;51.374;6.170;2023-07-29T03:04:06;6.38;;;2.75;;
74371;SDS011;62885;51.374;6.170;2023-07-29T03:06:31;8.23;;;2.58;;
74371;SDS011;62885;51.374;6.170;2023-07-29T03:08:57;5.38;;;3.03;;
74371;SDS011;62885;51.374;6.170;2023-07-29T03:11:22;7.25;;;2.78;;
74371;SDS011;62885;51.374;6.170;2023-07-29T03:13:47;5.43;;;2.90;;
74371;SDS011;62885;51.374;6.170;2023-07-29T03:16:14;7.10;;;2.38;;
74371;SDS011;62885;51.374;6.170;2023-07-29T03:18:41;7.32;;;2.63;;
74371;SDS011;62885;51.374;6.170;2023-07-29T03:21:07;5.35;;;2.70;;
74371;SDS011;62885;51.374;6.170;2023-07-29T03:23:34;5.38;;;2.70;;
74371;SDS011;62885;51.374;6.170;2023-07-29T03:26:00;5.40;;;2.67;;
74371;SDS011;62885;51.374;6.170;2023-07-29T03:28:31;6.07;;;2.97;;
74371;SDS011;62885;51.374;6.170;2023-07-29T03:30:57;5.63;;;2.70;;
74371;SDS011;62885;51.374;6.170;2023-07-29T03:33:24;4.47;;;2.30;;
74371;SDS011;62885;51.374;6.170;2023-07-29T03:35:51;5.57;;;2.97;;
74371;SDS011;62885;51.374;6.170;2023-07-29T03:38:16;5.90;;;2.80;;
74371;SDS011;62885;51.374;6.170;2023-07-29T03:40:42;6.88;;;3.05;;
74371;SDS011;62885;51.374;6.170;2023-07-29T03:43:08;4.63;;;2.70;;
74371;SDS011;62885;51.374;6.170;2023-07-29T03:45:33;4.20;;;2.17;;
74371;SDS011;62885;51.374;6.170;2023-07-29T03:48:00;4.78;;;2.22;;
74371;SDS011;62885;51.374;6.170;2023-07-29T03:50:26;4.50;;;2.20;;
74371;SDS011;62885;51.374;6.170;2023-07-29T03:52:52;4.93;;;2.63;;
74371;SDS011;62885;51.374;6.170;2023-07-29T03:55:17;4.65;;;2.08;;
74371;SDS011;62885;51.374;6.170;2023-07-29T03:57:43;3.95;;;1.88;;
74371;SDS011;62885;51.374;6.170;2023-07-29T04:00:08;4.93;;;2.20;;
74371;SDS011;62885;51.374;6.170;2023-07-29T04:02:34;4.18;;;1.65;;
74371;SDS011;62885;51.374;6.170;2023-07-29T04:05:02;3.53;;;2.00;;
74371;SDS011;62885;51.374;6.170;2023-07-29T04:07:28;5.13;;;2.13;;
74371;SDS011;62885;51.374;6.170;2023-07-29T04:09:54;3.78;;;1.70;;
74371;SDS011;62885;51.374;6.170;2023-07-29T04:12:19;4.72;;;1.95;;
74371;SDS011;62885;51.374;6.170;2023-07-29T04:14:46;4.25;;;1.60;;
74371;SDS011;62885;51.374;6.170;2023-07-29T04:17:12;4.47;;;1.85;;
74371;SDS011;62885;51.374;6.170;2023-07-29T04:19:37;2.78;;;1.55;;
74371;SDS011;62885;51.374;6.170;2023-07-29T04:22:02;3.00;;;1.50;;
74371;SDS011;62885;51.374;6.170;2023-07-29T04:24:28;4.93;;;1.83;;
74371;SDS011;62885;51.374;6.170;2023-07-29T04:26:53;5.72;;;1.80;;
74371;SDS011;62885;51.374;6.170;2023-07-29T04:29:19;4.63;;;1.88;;
74371;SDS011;62885;51.374;6.170;2023-07-29T04:31:44;5.53;;;2.15;;
74371;SDS011;62885;51.374;6.170;2023-07-29T04:34:10;3.55;;;1.70;;
74371;SDS011;62885;51.374;6.170;2023-07-29T04:36:35;4.95;;;1.90;;
74371;SDS011;62885;51.374;6.170;2023-07-29T04:39:01;4.20;;;2.10;;
74371;SDS011;62885;51.374;6.170;2023-07-29T04:41:26;4.45;;;2.05;;
74371;SDS011;62885;51.374;6.170;2023-07-29T04:43:51;5.03;;;1.90;;
74371;SDS011;62885;51.374;6.170;2023-07-29T04:46:17;4.97;;;2.33;;
74371;SDS011;62885;51.374;6.170;2023-07-29T04:48:43;4.75;;;2.30;;
74371;SDS011;62885;51.374;6.170;2023-07-29T04:51:08;5.35;;;2.17;;
74371;SDS011;62885;51.374;6.170;2023-07-29T04:53:33;8.73;;;2.35;;
74371;SDS011;62885;51.374;6.170;2023-07-29T04:56:01;6.65;;;2.40;;
74371;SDS011;62885;51.374;6.170;2023-07-29T04:58:27;4.03;;;1.88;;
74371;SDS011;62885;51.374;6.170;2023-07-29T05:00:55;4.47;;;1.98;;
74371;SDS011;62885;51.374;6.170;2023-07-29T05:03:20;6.00;;;2.65;;
74371;SDS011;62885;51.374;6.170;2023-07-29T05:05:46;4.43;;;2.40;;
74371;SDS011;62885;51.374;6.170;2023-07-29T05:08:11;6.05;;;2.65;;
74371;SDS011;62885;51.374;6.170;2023-07-29T05:10:39;5.60;;;2.13;;
74371;SDS011;62885;51.374;6.170;2023-07-29T05:13:04;4.80;;;2.30;;
74371;SDS011;62885;51.374;6.170;2023-07-29T05:15:30;4.07;;;2.25;;
74371;SDS011;62885;51.374;6.170;2023-07-29T05:17:55;4.72;;;2.08;;
74371;SDS011;62885;51.374;6.170;2023-07-29T05:20:21;5.03;;;2.50;;
74371;SDS011;62885;51.374;6.170;2023-07-29T05:22:46;5.53;;;2.47;;
74371;SDS011;62885;51.374;6.170;2023-07-29T05:25:12;5.68;;;2.40;;
74371;SDS011;62885;51.374;6.170;2023-07-29T05:27:37;8.50;;;2.65;;
74371;SDS011;62885;51.374;6.170;2023-07-29T05:30:02;6.03;;;2.50;;
74371;SDS011;62885;51.374;6.170;2023-07-29T05:32:28;5.15;;;1.95;;
74371;SDS011;62885;51.374;6.170;2023-07-29T05:34:54;4.82;;;2.00;;
74371;SDS011;62885;51.374;6.170;2023-07-29T05:37:20;3.65;;;2.00;;
74371;SDS011;62885;51.374;6.170;2023-07-29T05:39:45;4.07;;;1.98;;
74371;SDS011;62885;51.374;6.170;2023-07-29T05:42:10;4.00;;;2.03;;
74371;SDS011;62885;51.374;6.170;2023-07-29T05:44:36;4.47;;;1.90;;
74371;SDS011;62885;51.374;6.170;2023-07-29T05:47:01;4.90;;;2.13;;
74371;SDS011;62885;51.374;6.170;2023-07-29T05:49:27;4.30;;;2.00;;
74371;SDS011;62885;51.374;6.170;2023-07-29T05:51:52;5.30;;;2.22;;
74371;SDS011;62885;51.374;6.170;2023-07-29T05:54:18;3.55;;;1.73;;
74371;SDS011;62885;51.374;6.170;2023-07-29T05:56:44;5.07;;;2.22;;
74371;SDS011;62885;51.374;6.170;2023-07-29T05:59:09;5.43;;;1.80;;
74371;SDS011;62885;51.374;6.170;2023-07-29T06:01:34;4.53;;;1.85;;
74371;SDS011;62885;51.374;6.170;2023-07-29T06:04:00;3.40;;;1.75;;
74371;SDS011;62885;51.374;6.170;2023-07-29T06:06:26;3.53;;;1.63;;
74371;SDS011;62885;51.374;6.170;2023-07-29T06:08:52;5.65;;;2.08;;
74371;SDS011;62885;51.374;6.170;2023-07-29T06:11:17;3.70;;;1.92;;
74371;SDS011;62885;51.374;6.170;2023-07-29T06:13:42;3.90;;;1.60;;
74371;SDS011;62885;51.374;6.170;2023-07-29T06:16:08;2.78;;;1.50;;
74371;SDS011;62885;51.374;6.170;2023-07-29T06:18:33;3.33;;;1.67;;
74371;SDS011;62885;51.374;6.170;2023-07-29T06:20:58;2.80;;;1.48;;
74371;SDS011;62885;51.374;6.170;2023-07-29T06:23:24;2.97;;;1.52;;
74371;SDS011;62885;51.374;6.170;2023-07-29T06:25:49;4.85;;;2.45;;
74371;SDS011;62885;51.374;6.170;2023-07-29T06:28:15;4.00;;;1.50;;
74371;SDS011;62885;51.374;6.170;2023-07-29T06:30:40;5.47;;;1.73;;
74371;SDS011;62885;51.374;6.170;2023-07-29T06:33:05;3.10;;;1.45;;
74371;SDS011;62885;51.374;6.170;2023-07-29T06:35:31;2.45;;;1.30;;
74371;SDS011;62885;51.374;6.170;2023-07-29T06:37:56;3.47;;;1.77;;
74371;SDS011;62885;51.374;6.170;2023-07-29T06:40:22;3.17;;;1.60;;
74371;SDS011;62885;51.374;6.170;2023-07-29T06:42:47;2.95;;;1.33;;
74371;SDS011;62885;51.374;6.170;2023-07-29T06:45:13;3.63;;;1.25;;
74371;SDS011;62885;51.374;6.170;2023-07-29T06:47:38;2.80;;;1.35;;
74371;SDS011;62885;51.374;6.170;2023-07-29T06:50:03;3.03;;;1.23;;
74371;SDS011;62885;51.374;6.170;2023-07-29T06:52:29;3.60;;;1.50;;
74371;SDS011;62885;51.374;6.170;2023-07-29T06:54:55;2.55;;;1.17;;
74371;SDS011;62885;51.374;6.170;2023-07-29T06:57:20;5.05;;;2.05;;
74371;SDS011;62885;51.374;6.170;2023-07-29T06:59:46;3.13;;;1.73;;
74371;SDS011;62885;51.374;6.170;2023-07-29T07:02:11;3.15;;;1.50;;
74371;SDS011;62885;51.374;6.170;2023-07-29T07:04:36;3.05;;;1.50;;
74371;SDS011;62885;51.374;6.170;2023-07-29T07:07:02;4.13;;;1.60;;
74371;SDS011;62885;51.374;6.170;2023-07-29T07:09:27;2.85;;;1.27;;
74371;SDS011;62885;51.374;6.170;2023-07-29T07:11:52;3.03;;;1.23;;
74371;SDS011;62885;51.374;6.170;2023-07-29T07:14:18;3.85;;;1.27;;
74371;SDS011;62885;51.374;6.170;2023-07-29T07:16:43;2.78;;;1.20;;
74371;SDS011;62885;51.374;6.170;2023-07-29T07:19:09;3.38;;;1.40;;
74371;SDS011;62885;51.374;6.170;2023-07-29T07:21:34;2.45;;;1.15;;
74371;SDS011;62885;51.374;6.170;2023-07-29T07:23:59;2.78;;;1.20;;
74371;SDS011;62885;51.374;6.170;2023-07-29T07:26:25;3.78;;;1.63;;
74371;SDS011;62885;51.374;6.170;2023-07-29T07:28:50;2.00;;;0.93;;
74371;SDS011;62885;51.374;6.170;2023-07-29T07:31:16;2.78;;;1.30;;
74371;SDS011;62885;51.374;6.170;2023-07-29T07:33:42;2.53;;;1.15;;
74371;SDS011;62885;51.374;6.170;2023-07-29T07:36:07;4.38;;;1.20;;
74371;SDS011;62885;51.374;6.170;2023-07-29T07:38:33;2.83;;;1.30;;
74371;SDS011;62885;51.374;6.170;2023-07-29T07:40:58;1.90;;;1.10;;
74371;SDS011;62885;51.374;6.170;2023-07-29T07:43:24;2.53;;;1.15;;
74371;SDS011;62885;51.374;6.170;2023-07-29T07:45:49;5.03;;;1.50;;
74371;SDS011;62885;51.374;6.170;2023-07-29T07:48:15;2.88;;;1.30;;
74371;SDS011;62885;51.374;6.170;2023-07-29T07:50:42;3.58;;;1.40;;
74371;SDS011;62885;51.374;6.170;2023-07-29T07:53:10;3.88;;;1.35;;
74371;SDS011;62885;51.374;6.170;2023-07-29T07:55:35;3.03;;;1.13;;
74371;SDS011;62885;51.374;6.170;2023-07-29T07:58:01;3.17;;;1.13;;
74371;SDS011;62885;51.374;6.170;2023-07-29T08:00:26;3.70;;;1.35;;
74371;SDS011;62885;51.374;6.170;2023-07-29T08:02:52;2.55;;;1.10;;
74371;SDS011;62885;51.374;6.170;2023-07-29T08:05:19;2.13;;;0.95;;
74371;SDS011;62885;51.374;6.170;2023-07-29T08:07:44;3.67;;;1.20;;
74371;SDS011;62885;51.374;6.170;2023-07-29T08:10:10;3.22;;;1.30;;
74371;SDS011;62885;51.374;6.170;2023-07-29T08:12:35;2.35;;;1.23;;
74371;SDS011;62885;51.374;6.170;2023-07-29T08:15:01;2.60;;;1.30;;
74371;SDS011;62885;51.374;6.170;2023-07-29T08:17:26;2.90;;;1.23;;
74371;SDS011;62885;51.374;6.170;2023-07-29T08:19:52;3.13;;;1.42;;
74371;SDS011;62885;51.374;6.170;2023-07-29T08:22:18;2.58;;;1.52;;
74371;SDS011;62885;51.374;6.170;2023-07-29T08:24:43;2.90;;;1.27;;
74371;SDS011;62885;51.374;6.170;2023-07-29T08:27:09;2.47;;;1.30;;
74371;SDS011;62885;51.374;6.170;2023-07-29T08:29:35;1.48;;;1.10;;
74371;SDS011;62885;51.374;6.170;2023-07-29T08:32:00;3.80;;;1.42;;
74371;SDS011;62885;51.374;6.170;2023-07-29T08:34:25;2.65;;;1.00;;
74371;SDS011;62885;51.374;6.170;2023-07-29T08:36:51;2.03;;;1.15;;
74371;SDS011;62885;51.374;6.170;2023-07-29T08:39:16;3.28;;;1.15;;
74371;SDS011;62885;51.374;6.170;2023-07-29T08:44:22;2.35;;;1.25;;
74371;SDS011;62885;51.374;6.170;2023-07-29T08:46:49;2.63;;;1.10;;
74371;SDS011;62885;51.374;6.170;2023-07-29T08:49:16;3.42;;;1.35;;
74371;SDS011;62885;51.374;6.170;2023-07-29T08:51:47;2.72;;;1.20;;
74371;SDS011;62885;51.374;6.170;2023-07-29T08:54:14;2.58;;;1.30;;
74371;SDS011;62885;51.374;6.170;2023-07-29T08:56:42;1.95;;;0.98;;
74371;SDS011;62885;51.374;6.170;2023-07-29T08:59:08;1.60;;;0.82;;
74371;SDS011;62885;51.374;6.170;2023-07-29T09:01:36;2.47;;;1.10;;
74371;SDS011;62885;51.374;6.170;2023-07-29T09:04:03;1.88;;;1.05;;
74371;SDS011;62885;51.374;6.170;2023-07-29T09:06:29;2.22;;;1.10;;
74371;SDS011;62885;51.374;6.170;2023-07-29T09:08:56;3.55;;;1.08;;
74371;SDS011;62885;51.374;6.170;2023-07-29T09:11:23;2.83;;;1.08;;
74371;SDS011;62885;51.374;6.170;2023-07-29T09:13:48;1.90;;;1.02;;
74371;SDS011;62885;51.374;6.170;2023-07-29T09:16:14;1.27;;;1.00;;
74371;SDS011;62885;51.374;6.170;2023-07-29T09:18:40;2.75;;;1.10;;
74371;SDS011;62885;51.374;6.170;2023-07-29T09:21:05;3.88;;;1.17;;
74371;SDS011;62885;51.374;6.170;2023-07-29T09:23:43;3.20;;;0.77;;
74371;SDS011;62885;51.374;6.170;2023-07-29T09:26:10;3.58;;;1.30;;
74371;SDS011;62885;51.374;6.170;2023-07-29T09:28:36;2.05;;;0.90;;
74371;SDS011;62885;51.374;6.170;2023-07-29T09:31:03;2.38;;;1.10;;
74371;SDS011;62885;51.374;6.170;2023-07-29T09:33:29;3.03;;;0.90;;
74371;SDS011;62885;51.374;6.170;2023-07-29T09:35:56;3.55;;;1.05;;
74371;SDS011;62885;51.374;6.170;2023-07-29T09:38:28;1.98;;;0.85;;
74371;SDS011;62885;51.374;6.170;2023-07-29T09:40:54;1.88;;;1.10;;
74371;SDS011;62885;51.374;6.170;2023-07-29T09:43:24;4.30;;;1.10;;
74371;SDS011;62885;51.374;6.170;2023-07-29T09:45:53;1.80;;;0.90;;
74371;SDS011;62885;51.374;6.170;2023-07-29T09:48:19;1.33;;;0.80;;
74371;SDS011;62885;51.374;6.170;2023-07-29T09:50:47;3.22;;;1.05;;
74371;SDS011;62885;51.374;6.170;2023-07-29T09:53:13;2.53;;;0.93;;
74371;SDS011;62885;51.374;6.170;2023-07-29T09:55:39;2.83;;;0.80;;
74371;SDS011;62885;51.374;6.170;2023-07-29T09:58:10;2.47;;;1.40;;
74371;SDS011;62885;51.374;6.170;2023-07-29T10:00:36;3.30;;;2.08;;
74371;SDS011;62885;51.374;6.170;2023-07-29T10:03:04;1.20;;;0.90;;
74371;SDS011;62885;51.374;6.170;2023-07-29T10:05:29;2.67;;;1.17;;
74371;SDS011;62885;51.374;6.170;2023-07-29T10:07:55;4.57;;;1.40;;
74371;SDS011;62885;51.374;6.170;2023-07-29T10:10:21;3.85;;;1.17;;
74371;SDS011;62885;51.374;6.170;2023-07-29T10:12:47;1.60;;;1.20;;
74371;SDS011;62885;51.374;6.170;2023-07-29T10:15:13;4.38;;;1.35;;
74371;SDS011;62885;51.374;6.170;2023-07-29T10:17:41;6.80;;;1.58;;
74371;SDS011;62885;51.374;6.170;2023-07-29T10:20:08;2.25;;;1.00;;
74371;SDS011;62885;51.374;6.170;2023-07-29T10:22:38;1.90;;;0.80;;
74371;SDS011;62885;51.374;6.170;2023-07-29T10:27:52;2.08;;;1.00;;
74371;SDS011;62885;51.374;6.170;2023-07-29T10:30:21;3.83;;;1.15;;
74371;SDS011;62885;51.374;6.170;2023-07-29T10:32:47;2.08;;;0.95;;
74371;SDS011;62885;51.374;6.170;2023-07-29T10:35:14;3.90;;;1.13;;
74371;SDS011;62885;51.374;6.170;2023-07-29T10:37:40;4.03;;;0.90;;
74371;SDS011;62885;51.374;6.170;2023-07-29T10:40:07;6.60;;;3.05;;
74371;SDS011;62885;51.374;6.170;2023-07-29T10:42:35;4.35;;;2.13;;
74371;SDS011;62885;51.374;6.170;2023-07-29T10:45:03;4.03;;;2.25;;
74371;SDS011;62885;51.374;6.170;2023-07-29T10:47:43;5.72;;;1.40;;
74371;SDS011;62885;51.374;6.170;2023-07-29T10:50:16;4.32;;;1.92;;
74371;SDS011;62885;51.374;6.170;2023-07-29T10:52:43;4.13;;;1.23;;
74371;SDS011;62885;51.374;6.170;2023-07-29T10:58:11;2.25;;;1.10;;
74371;SDS011;62885;51.374;6.170;2023-07-29T11:00:39;3.17;;;1.13;;
74371;SDS011;62885;51.374;6.170;2023-07-29T11:03:06;4.90;;;1.05;;
74371;SDS011;62885;51.374;6.170;2023-07-29T11:08:30;7.25;;;2.30;;
74371;SDS011;62885;51.374;6.170;2023-07-29T11:13:27;2.47;;;1.00;;
74371;SDS011;62885;51.374;6.170;2023-07-29T11:15:54;4.25;;;1.23;;
74371;SDS011;62885;51.374;6.170;2023-07-29T11:18:21;2.83;;;1.30;;
74371;SDS011;62885;51.374;6.170;2023-07-29T11:20:47;2.70;;;1.38;;
74371;SDS011;62885;51.374;6.170;2023-07-29T11:23:13;2.80;;;1.00;;
74371;SDS011;62885;51.374;6.170;2023-07-29T11:25:39;4.13;;;1.70;;
74371;SDS011;62885;51.374;6.170;2023-07-29T11:28:04;2.88;;;1.42;;
74371;SDS011;62885;51.374;6.170;2023-07-29T11:30:30;3.70;;;1.40;;
74371;SDS011;62885;51.374;6.170;2023-07-29T11:32:56;4.05;;;1.77;;
74371;SDS011;62885;51.374;6.170;2023-07-29T11:35:23;2.15;;;1.20;;
74371;SDS011;62885;51.374;6.170;2023-07-29T11:37:49;3.60;;;1.20;;
74371;SDS011;62885;51.374;6.170;2023-07-29T11:40:19;4.32;;;1.50;;
74371;SDS011;62885;51.374;6.170;2023-07-29T11:42:46;4.43;;;1.45;;
74371;SDS011;62885;51.374;6.170;2023-07-29T11:45:12;2.47;;;1.40;;
74371;SDS011;62885;51.374;6.170;2023-07-29T11:47:39;3.55;;;1.30;;
74371;SDS011;62885;51.374;6.170;2023-07-29T11:50:05;3.85;;;1.30;;
74371;SDS011;62885;51.374;6.170;2023-07-29T11:52:35;2.13;;;1.02;;
74371;SDS011;62885;51.374;6.170;2023-07-29T11:55:05;4.38;;;1.10;;
74371;SDS011;62885;51.374;6.170;2023-07-29T11:57:31;3.05;;;1.08;;
74371;SDS011;62885;51.374;6.170;2023-07-29T12:00:01;3.80;;;1.20;;
74371;SDS011;62885;51.374;6.170;2023-07-29T12:02:31;2.40;;;1.10;;
74371;SDS011;62885;51.374;6.170;2023-07-29T12:04:58;1.88;;;1.02;;
74371;SDS011;62885;51.374;6.170;2023-07-29T12:07:23;5.07;;;2.40;;
74371;SDS011;62885;51.374;6.170;2023-07-29T12:09:49;2.72;;;1.30;;
74371;SDS011;62885;51.374;6.170;2023-07-29T12:12:15;3.97;;;1.50;;
74371;SDS011;62885;51.374;6.170;2023-07-29T12:14:45;4.63;;;1.70;;
74371;SDS011;62885;51.374;6.170;2023-07-29T12:17:11;2.58;;;1.30;;
74371;SDS011;62885;51.374;6.170;2023-07-29T12:19:37;2.97;;;1.20;;
74371;SDS011;62885;51.374;6.170;2023-07-29T12:22:04;2.83;;;1.20;;
74371;SDS011;62885;51.374;6.170;2023-07-29T12:24:32;2.70;;;1.20;;
74371;SDS011;62885;51.374;6.170;2023-07-29T12:26:58;1.92;;;0.90;;
74371;SDS011;62885;51.374;6.170;2023-07-29T12:29:25;2.67;;;1.33;;
74371;SDS011;62885;51.374;6.170;2023-07-29T12:32:00;2.05;;;1.20;;
74371;SDS011;62885;51.374;6.170;2023-07-29T12:34:28;3.00;;;1.27;;
74371;SDS011;62885;51.374;6.170;2023-07-29T12:36:55;2.95;;;1.50;;
74371;SDS011;62885;51.374;6.170;2023-07-29T12:39:26;3.83;;;1.50;;
74371;SDS011;62885;51.374;6.170;2023-07-29T12:41:53;2.53;;;1.30;;
74371;SDS011;62885;51.374;6.170;2023-07-29T12:44:20;2.00;;;1.20;;
74371;SDS011;62885;51.374;6.170;2023-07-29T12:46:45;2.55;;;1.40;;
74371;SDS011;62885;51.374;6.170;2023-07-29T12:49:11;2.13;;;1.30;;
74371;SDS011;62885;51.374;6.170;2023-07-29T12:51:37;2.28;;;1.20;;
74371;SDS011;62885;51.374;6.170;2023-07-29T12:54:02;5.25;;;1.30;;
74371;SDS011;62885;51.374;6.170;2023-07-29T12:56:29;4.82;;;1.73;;
74371;SDS011;62885;51.374;6.170;2023-07-29T12:58:56;5.60;;;1.80;;
74371;SDS011;62885;51.374;6.170;2023-07-29T13:01:21;5.70;;;1.42;;
74371;SDS011;62885;51.374;6.170;2023-07-29T13:03:48;3.28;;;1.80;;
74371;SDS011;62885;51.374;6.170;2023-07-29T13:06:14;3.03;;;1.42;;
74371;SDS011;62885;51.374;6.170;2023-07-29T13:08:40;3.88;;;1.45;;
74371;SDS011;62885;51.374;6.170;2023-07-29T13:11:06;3.08;;;1.63;;
74371;SDS011;62885;51.374;6.170;2023-07-29T13:13:31;2.72;;;1.30;;
74371;SDS011;62885;51.374;6.170;2023-07-29T13:15:57;4.88;;;1.63;;
74371;SDS011;62885;51.374;6.170;2023-07-29T13:18:23;5.68;;;1.65;;
74371;SDS011;62885;51.374;6.170;2023-07-29T13:20:48;3.88;;;1.52;;
74371;SDS011;62885;51.374;6.170;2023-07-29T13:23:14;2.38;;;1.40;;
74371;SDS011;62885;51.374;6.170;2023-07-29T13:25:40;3.30;;;1.67;;
74371;SDS011;62885;51.374;6.170;2023-07-29T13:28:06;4.18;;;1.73;;
74371;SDS011;62885;51.374;6.170;2023-07-29T13:30:32;5.63;;;1.90;;
74371;SDS011;62885;51.374;6.170;2023-07-29T13:32:58;2.85;;;1.80;;
74371;SDS011;62885;51.374;6.170;2023-07-29T13:35:24;4.38;;;1.85;;
74371;SDS011;62885;51.374;6.170;2023-07-29T13:37:49;4.72;;;1.75;;
74371;SDS011;62885;51.374;6.170;2023-07-29T13:40:14;5.78;;;1.88;;
74371;SDS011;62885;51.374;6.170;2023-07-29T13:42:40;3.50;;;1.83;;
74371;SDS011;62885;51.374;6.170;2023-07-29T13:45:05;4.22;;;1.95;;
74371;SDS011;62885;51.374;6.170;2023-07-29T13:47:31;6.40;;;2.22;;
74371;SDS011;62885;51.374;6.170;2023-07-29T13:49:56;4.45;;;2.00;;
74371;SDS011;62885;51.374;6.170;2023-07-29T13:52:22;4.10;;;1.65;;
74371;SDS011;62885;51.374;6.170;2023-07-29T13:54:47;5.68;;;2.70;;
74371;SDS011;62885;51.374;6.170;2023-07-29T13:57:13;5.32;;;2.28;;
74371;SDS011;62885;51.374;6.170;2023-07-29T13:59:38;3.13;;;1.98;;
74371;SDS011;62885;51.374;6.170;2023-07-29T14:02:06;4.30;;;2.20;;
74371;SDS011;62885;51.374;6.170;2023-07-29T14:04:32;4.65;;;2.22;;
74371;SDS011;62885;51.374;6.170;2023-07-29T14:06:58;3.65;;;1.83;;
74371;SDS011;62885;51.374;6.170;2023-07-29T14:09:24;4.93;;;2.17;;
74371;SDS011;62885;51.374;6.170;2023-07-29T14:11:50;4.13;;;2.10;;
74371;SDS011;62885;51.374;6.170;2023-07-29T14:14:15;3.95;;;1.98;;
74371;SDS011;62885;51.374;6.170;2023-07-29T14:16:41;5.10;;;2.25;;
74371;SDS011;62885;51.374;6.170;2023-07-29T14:19:08;4.15;;;2.15;;
74371;SDS011;62885;51.374;6.170;2023-07-29T14:21:34;6.38;;;2.83;;
74371;SDS011;62885;51.374;6.170;2023-07-29T14:23:59;5.07;;;2.20;;
74371;SDS011;62885;51.374;6.170;2023-07-29T14:26:25;3.05;;;1.50;;
74371;SDS011;62885;51.374;6.170;2023-07-29T14:28:50;2.67;;;1.38;;
74371;SDS011;62885;51.374;6.170;2023-07-29T14:31:16;3.67;;;1.70;;
74371;SDS011;62885;51.374;6.170;2023-07-29T14:33:42;4.72;;;1.63;;
74371;SDS011;62885;51.374;6.170;2023-07-29T14:36:08;5.35;;;1.60;;
74371;SDS011;62885;51.374;6.170;2023-07-29T14:38:34;4.45;;;1.42;;
74371;SDS011;62885;51.374;6.170;2023-07-29T14:41:00;4.47;;;1.50;;
74371;SDS011;62885;51.374;6.170;2023-07-29T14:43:25;2.53;;;0.95;;
74371;SDS011;62885;51.374;6.170;2023-07-29T14:45:50;3.40;;;1.60;;
74371;SDS011;62885;51.374;6.170;2023-07-29T14:48:16;3.83;;;1.50;;
74371;SDS011;62885;51.374;6.170;2023-07-29T14:50:41;2.97;;;1.50;;
74371;SDS011;62885;51.374;6.170;2023-07-29T14:53:08;3.08;;;1.48;;
74371;SDS011;62885;51.374;6.170;2023-07-29T14:55:34;7.70;;;2.85;;
74371;SDS011;62885;51.374;6.170;2023-07-29T14:57:59;5.53;;;2.08;;
74371;SDS011;62885;51.374;6.170;2023-07-29T15:00:25;3.42;;;1.20;;
74371;SDS011;62885;51.374;6.170;2023-07-29T15:02:50;3.83;;;1.50;;